Time;durP1;ratioP1;P1;durP2;ratioP2;P2;SDS_P1;SDS_P2;PMS_P1;PMS_P2;Temp;Humidity;BMP_temperature;BMP_pressure;BME280_temperature;BME280_humidity;BME280_pressure;Samples;Min_cycle;Max_cycle;Signal;HPM_P1;HPM_P2
2023/09/29 05:00:12;;;;;;;18.30;8.83;;;;;;;;;;6078088;23;20410;31
2023/09/29 05:02:38;;;;;;;17.77;7.90;;;;;;;;;;4934131;29;21024;-67
2023/09/29 05:05:04;;;;;;;19.53;8.20;;;;;;;;;;4933518;29;20936;-68
2023/09/29 05:07:30;;;;;;;17.60;7.60;;;;;;;;;;4934845;29;20920;-68
2023/09/29 05:09:56;;;;;;;16.13;7.63;;;;;;;;;;4934398;29;20518;-70
2023/09/29 05:12:23;;;;;;;20.77;8.20;;;;;;;;;;4934597;29;20473;-69
2023/09/29 05:14:49;;;;;;;13.10;7.30;;;;;;;;;;4934896;29;20428;-68
2023/09/29 05:17:15;;;;;;;19.53;8.80;;;;;;;;;;4974724;23;20591;-74
2023/09/29 05:19:41;;;;;;;20.17;8.10;;;;;;;;;;4954456;29;20404;-73
2023/09/29 05:22:07;;;;;;;19.03;7.90;;;;;;;;;;4954189;28;20408;-73
2023/09/29 05:27:37;;;;;;;13.13;6.60;;;;;;;;;;4934325;29;20397;-72
2023/09/29 05:30:03;;;;;;;20.50;8.70;;;;;;;;;;4935028;29;20846;-73
2023/09/29 05:32:29;;;;;;;24.37;8.00;;;;;;;;;;4933166;29;20465;-73
2023/09/29 05:34:55;;;;;;;14.20;6.83;;;;;;;;;;4934446;29;20410;-73
2023/09/29 05:37:21;;;;;;;19.00;7.80;;;;;;;;;;4934290;29;20913;-73
2023/09/29 05:39:47;;;;;;;13.73;7.90;;;;;;;;;;4934515;29;20402;-73
2023/09/29 05:42:13;;;;;;;18.23;6.77;;;;;;;;;;4934399;29;20421;-73
2023/09/29 05:44:39;;;;;;;14.83;7.20;;;;;;;;;;4934182;29;20413;-73
2023/09/29 05:47:05;;;;;;;20.07;7.50;;;;;;;;;;4934722;29;20488;-73
2023/09/29 05:49:32;;;;;;;21.20;8.20;;;;;;;;;;4934282;29;20555;-74
2023/09/29 05:51:58;;;;;;;24.73;9.60;;;;;;;;;;4933635;29;20468;-73
2023/09/29 05:54:24;;;;;;;25.30;8.73;;;;;;;;;;4923695;29;21004;-73
2023/09/29 05:56:50;;;;;;;17.60;9.60;;;;;;;;;;4915392;29;20901;-74
2023/09/29 05:59:16;;;;;;;24.17;8.70;;;;;;;;;;4914480;29;20917;-73
2023/09/29 06:01:42;;;;;;;17.80;8.40;;;;;;;;;;4915144;29;20449;-73
2023/09/29 06:04:08;;;;;;;16.00;7.67;;;;;;;;;;4931343;29;20449;-74
2023/09/29 06:06:34;;;;;;;21.23;8.63;;;;;;;;;;4934339;29;20496;-72
2023/09/29 06:09:00;;;;;;;24.70;9.07;;;;;;;;;;4934432;29;20420;-72
2023/09/29 06:11:26;;;;;;;27.33;9.37;;;;;;;;;;4934482;29;20460;-72
2023/09/29 06:13:52;;;;;;;21.13;8.80;;;;;;;;;;4934171;29;20476;-74
2023/09/29 06:16:18;;;;;;;16.60;9.07;;;;;;;;;;4933758;29;20824;-74
2023/09/29 06:18:44;;;;;;;19.67;8.70;;;;;;;;;;4934219;29;20413;-73
2023/09/29 06:21:10;;;;;;;16.50;8.27;;;;;;;;;;4934443;29;20845;-73
2023/09/29 06:23:36;;;;;;;19.33;7.77;;;;;;;;;;4934103;29;20465;-73
2023/09/29 06:26:02;;;;;;;22.90;9.90;;;;;;;;;;4933273;29;20473;-73
2023/09/29 06:28:28;;;;;;;18.43;8.77;;;;;;;;;;4934188;29;20424;-72
2023/09/29 06:30:58;;;;;;;25.23;9.40;;;;;;;;;;4933771;29;20465;-72
2023/09/29 06:33:25;;;;;;;15.83;7.90;;;;;;;;;;4934579;29;20426;-74
2023/09/29 06:35:52;;;;;;;24.10;8.20;;;;;;;;;;4933784;29;20810;-72
2023/09/29 06:38:18;;;;;;;19.60;7.70;;;;;;;;;;4933984;29;20476;-74
2023/09/29 06:40:44;;;;;;;27.60;9.07;;;;;;;;;;4933964;29;20421;-74
2023/09/29 06:43:10;;;;;;;33.07;10.90;;;;;;;;;;4934060;29;20420;-74
2023/09/29 06:45:36;;;;;;;18.47;6.93;;;;;;;;;;4933555;29;20960;-74
2023/09/29 06:48:02;;;;;;;15.93;6.73;;;;;;;;;;4926823;29;20465;-74
2023/09/29 06:50:28;;;;;;;25.87;9.27;;;;;;;;;;4927406;29;20414;-74
2023/09/29 06:52:54;;;;;;;19.60;7.40;;;;;;;;;;4915533;29;20953;-74
2023/09/29 06:58:23;;;;;;;19.90;7.73;;;;;;;;;;4925500;29;20408;-74
2023/09/29 07:00:51;;;;;;;25.23;7.70;;;;;;;;;;4924194;29;20433;-70
2023/09/29 07:03:17;;;;;;;23.30;9.07;;;;;;;;;;4932004;29;20420;-73
2023/09/29 07:05:43;;;;;;;26.33;8.07;;;;;;;;;;4927009;29;20537;-70
2023/09/29 07:08:10;;;;;;;21.17;7.63;;;;;;;;;;4925015;29;20449;-70
2023/09/29 07:10:36;;;;;;;27.07;9.17;;;;;;;;;;4915924;29;20425;-71
2023/09/29 07:13:02;;;;;;;18.53;8.47;;;;;;;;;;4917220;29;20410;-70
2023/09/29 07:15:28;;;;;;;19.60;8.23;;;;;;;;;;4917407;29;20445;-71
2023/09/29 07:17:54;;;;;;;15.97;7.97;;;;;;;;;;4916834;29;20402;-71
2023/09/29 07:20:20;;;;;;;21.43;8.60;;;;;;;;;;4917761;29;20958;-71
2023/09/29 07:22:46;;;;;;;19.63;8.00;;;;;;;;;;4917729;29;20811;-72
2023/09/29 07:25:14;;;;;;;24.90;8.47;;;;;;;;;;4917779;29;20429;-72
2023/09/29 07:27:40;;;;;;;13.20;8.00;;;;;;;;;;4936169;29;20425;-71
2023/09/29 07:30:07;;;;;;;19.23;8.87;;;;;;;;;;4936453;29;20509;-71
2023/09/29 07:32:33;;;;;;;19.57;8.83;;;;;;;;;;4936231;29;20485;-71
2023/09/29 07:34:59;;;;;;;15.53;8.90;;;;;;;;;;4932510;29;20420;-71
2023/09/29 07:37:25;;;;;;;24.70;7.60;;;;;;;;;;4936258;29;21125;-74
2023/09/29 07:40:09;;;;;;;20.10;8.70;;;;;;;;;;4936320;29;20414;-71
2023/09/29 07:42:35;;;;;;;27.73;7.67;;;;;;;;;;4924152;29;20425;-71
2023/09/29 07:45:03;;;;;;;21.30;8.13;;;;;;;;;;4935328;29;20413;-72
2023/09/29 07:47:29;;;;;;;22.43;7.90;;;;;;;;;;4936123;29;20434;-71
2023/09/29 07:49:55;;;;;;;20.93;8.67;;;;;;;;;;4929142;29;20432;-71
2023/09/29 07:52:27;;;;;;;22.90;9.03;;;;;;;;;;4932925;29;20477;-72
2023/09/29 07:54:53;;;;;;;25.73;8.57;;;;;;;;;;4917591;29;20429;-71
2023/09/29 07:57:19;;;;;;;25.00;9.23;;;;;;;;;;4917765;29;20450;-71
2023/09/29 07:59:45;;;;;;;24.83;9.27;;;;;;;;;;4917822;29;20418;-74
2023/09/29 08:02:11;;;;;;;19.97;8.00;;;;;;;;;;4926381;29;20462;-74
2023/09/29 08:07:41;;;;;;;13.00;6.90;;;;;;;;;;4925181;29;20413;-64
2023/09/29 08:10:07;;;;;;;23.30;7.10;;;;;;;;;;4930036;29;20421;-64
2023/09/29 08:12:34;;;;;;;18.53;7.03;;;;;;;;;;4918003;29;20553;-64
2023/09/29 08:15:00;;;;;;;30.13;8.47;;;;;;;;;;4922683;29;20437;-63
2023/09/29 08:20:35;;;;;;;11.77;6.00;;;;;;;;;;4936490;29;20405;-64
2023/09/29 08:28:41;;;;;;;12.00;5.67;;;;;;;;;;4935336;29;20607;-68
2023/09/29 08:31:15;;;;;;;18.70;7.37;;;;;;;;;;4929420;29;20469;-67
2023/09/29 08:33:42;;;;;;;13.33;6.00;;;;;;;;;;4924215;29;20441;-68
2023/09/29 08:36:08;;;;;;;17.03;6.57;;;;;;;;;;4931746;29;20426;-67
2023/09/29 08:38:34;;;;;;;19.43;6.60;;;;;;;;;;4931256;29;20418;-67
2023/09/29 08:41:03;;;;;;;12.00;6.13;;;;;;;;;;4958128;23;20520;-64
2023/09/29 08:43:30;;;;;;;14.17;5.30;;;;;;;;;;4941193;29;20468;-66
2023/09/29 08:45:59;;;;;;;16.70;5.80;;;;;;;;;;4952678;29;20499;-66
2023/09/29 08:48:28;;;;;;;11.80;5.70;;;;;;;;;;4954313;29;20423;-66
2023/09/29 08:50:55;;;;;;;17.10;5.80;;;;;;;;;;4944115;29;20479;-66
2023/09/29 08:53:22;;;;;;;9.83;5.70;;;;;;;;;;4915961;29;20411;-66
2023/09/29 08:55:49;;;;;;;14.13;5.70;;;;;;;;;;4918449;29;20410;-65
2023/09/29 08:58:15;;;;;;;14.27;5.33;;;;;;;;;;4933711;29;20845;-65
2023/09/29 09:00:41;;;;;;;16.23;6.03;;;;;;;;;;4919233;29;20461;-65
2023/09/29 09:03:07;;;;;;;15.40;6.70;;;;;;;;;;4916059;29;20470;-65
2023/09/29 09:05:32;;;;;;;12.43;5.90;;;;;;;;;;4915336;29;20459;-65
2023/09/29 09:08:01;;;;;;;17.33;6.57;;;;;;;;;;4915776;29;20454;-67
2023/09/29 09:10:34;;;;;;;14.07;5.77;;;;;;;;;;4915218;29;20425;-66
2023/09/29 09:13:00;;;;;;;15.23;6.70;;;;;;;;;;4915606;29;20446;-67
2023/09/29 09:15:26;;;;;;;19.67;6.70;;;;;;;;;;4915398;29;20410;-65
2023/09/29 09:17:52;;;;;;;17.30;6.00;;;;;;;;;;4915253;29;20447;-65
2023/09/29 09:20:19;;;;;;;12.67;6.30;;;;;;;;;;4915407;29;20756;-65
2023/09/29 09:22:57;;;;;;;18.73;7.13;;;;;;;;;;4931034;29;20441;-65
2023/09/29 09:25:30;;;;;;;12.40;6.20;;;;;;;;;;4926562;29;20484;-66
2023/09/29 09:27:56;;;;;;;19.73;6.33;;;;;;;;;;4933973;29;20907;-69
2023/09/29 09:30:24;;;;;;;18.43;5.87;;;;;;;;;;4930559;29;20474;-65
2023/09/29 09:32:50;;;;;;;22.40;6.00;;;;;;;;;;4915916;29;20474;-65
2023/09/29 09:35:28;;;;;;;11.30;5.50;;;;;;;;;;4919544;29;20775;-65
2023/09/29 09:37:55;;;;;;;27.10;6.60;;;;;;;;;;4918994;29;20509;-65
2023/09/29 09:40:26;;;;;;;13.27;6.50;;;;;;;;;;4922973;29;20422;-65
2023/09/29 09:42:58;;;;;;;11.30;5.40;;;;;;;;;;4914949;29;20473;-64
2023/09/29 09:45:25;;;;;;;17.60;5.83;;;;;;;;;;4914961;29;20423;-64
2023/09/29 09:47:57;;;;;;;13.53;6.10;;;;;;;;;;4914839;29;20827;-69
2023/09/29 09:50:24;;;;;;;15.00;5.57;;;;;;;;;;4915017;29;20430;-71
2023/09/29 09:52:53;;;;;;;17.63;6.27;;;;;;;;;;4926350;29;21018;-73
2023/09/29 09:55:19;;;;;;;17.80;6.70;;;;;;;;;;4926090;29;20476;-71
2023/09/29 09:57:47;;;;;;;19.07;6.20;;;;;;;;;;4933318;29;20418;-71
2023/09/29 10:00:13;;;;;;;19.30;6.23;;;;;;;;;;4933614;29;20437;-71
2023/09/29 10:02:56;;;;;;;20.47;5.80;;;;;;;;;;4933734;29;20885;-71
2023/09/29 10:05:22;;;;;;;10.77;4.73;;;;;;;;;;4933405;29;20421;-71
2023/09/29 10:07:53;;;;;;;11.60;5.90;;;;;;;;;;4933652;29;20429;-71
2023/09/29 10:10:24;;;;;;;25.07;7.00;;;;;;;;;;4933767;29;20513;-72
2023/09/29 10:12:54;;;;;;;23.67;6.10;;;;;;;;;;4933503;29;20568;-72
2023/09/29 10:15:20;;;;;;;10.07;5.47;;;;;;;;;;4933581;29;20489;-72
2023/09/29 10:17:47;;;;;;;14.00;6.47;;;;;;;;;;4930941;29;20413;-71
2023/09/29 10:20:23;;;;;;;12.63;5.40;;;;;;;;;;4914767;29;20440;-71
2023/09/29 10:22:54;;;;;;;10.67;5.40;;;;;;;;;;4930011;29;20452;-71
2023/09/29 10:25:24;;;;;;;13.40;5.77;;;;;;;;;;4933124;29;20409;-72
2023/09/29 10:27:59;;;;;;;15.37;6.23;;;;;;;;;;4933126;29;20441;-71
2023/09/29 10:30:26;;;;;;;14.10;5.57;;;;;;;;;;4933851;29;20441;-71
2023/09/29 10:33:05;;;;;;;12.00;5.90;;;;;;;;;;4925070;29;20841;-71
2023/09/29 10:35:33;;;;;;;11.47;5.30;;;;;;;;;;4930366;29;20508;-72
2023/09/29 10:38:04;;;;;;;11.57;5.10;;;;;;;;;;4933230;29;20405;-72
2023/09/29 10:41:04;;;;;;;8.20;5.50;;;;;;;;;;4933288;29;20437;-72
2023/09/29 10:46:34;;;;;;;7.00;4.27;;;;;;;;;;4924465;29;20957;-70
2023/09/29 10:49:00;;;;;;;7.00;3.90;;;;;;;;;;4920954;29;20418;-71
2023/09/29 10:51:31;;;;;;;5.53;3.53;;;;;;;;;;4931790;29;20481;-71
2023/09/29 10:54:02;;;;;;;6.30;4.10;;;;;;;;;;4937006;29;20591;-71
2023/09/29 10:56:29;;;;;;;4.30;3.20;;;;;;;;;;4935707;29;20413;-71
2023/09/29 10:58:55;;;;;;;8.67;4.40;;;;;;;;;;4936762;29;20501;-70
2023/09/29 11:01:25;;;;;;;9.10;4.13;;;;;;;;;;4928560;29;20466;-70
2023/09/29 11:03:51;;;;;;;8.60;3.80;;;;;;;;;;4930787;29;20560;-70
2023/09/29 11:06:18;;;;;;;12.63;4.53;;;;;;;;;;4929997;29;20473;-70
2023/09/29 11:08:51;;;;;;;12.10;4.33;;;;;;;;;;4922877;29;20926;-70
2023/09/29 11:11:17;;;;;;;6.27;3.53;;;;;;;;;;4933796;29;20552;-71
2023/09/29 11:13:43;;;;;;;11.17;3.70;;;;;;;;;;4926044;29;20921;-70
2023/09/29 11:16:20;;;;;;;5.60;4.20;;;;;;;;;;4934151;29;20798;-70
2023/09/29 11:18:47;;;;;;;7.17;4.10;;;;;;;;;;4931507;29;20434;-70
2023/09/29 11:21:13;;;;;;;8.57;4.50;;;;;;;;;;4930083;29;20451;-70
2023/09/29 11:23:41;;;;;;;7.23;4.10;;;;;;;;;;4927975;29;20430;-71
2023/09/29 11:26:09;;;;;;;12.23;4.57;;;;;;;;;;4924390;29;20887;-70
2023/09/29 11:28:39;;;;;;;9.13;4.50;;;;;;;;;;4917566;29;20434;-70
2023/09/29 11:31:06;;;;;;;10.23;4.37;;;;;;;;;;4917315;29;20506;-69
2023/09/29 11:33:32;;;;;;;7.13;3.67;;;;;;;;;;4916519;29;20457;-70
2023/09/29 11:35:57;;;;;;;9.47;4.40;;;;;;;;;;4917246;29;20577;-71
2023/09/29 11:38:24;;;;;;;7.70;4.17;;;;;;;;;;4916282;29;20419;-70
2023/09/29 11:40:50;;;;;;;5.13;3.60;;;;;;;;;;4917036;29;20534;-71
2023/09/29 11:43:16;;;;;;;5.90;4.00;;;;;;;;;;4916841;29;20458;-70
2023/09/29 11:45:43;;;;;;;8.00;4.10;;;;;;;;;;4921552;29;20441;-70
2023/09/29 11:48:10;;;;;;;6.50;4.60;;;;;;;;;;4929270;29;20989;-71
2023/09/29 11:50:36;;;;;;;8.40;4.80;;;;;;;;;;4922409;29;20442;-71
2023/09/29 11:53:06;;;;;;;8.50;4.43;;;;;;;;;;4925828;29;20445;-70
2023/09/29 11:55:32;;;;;;;7.53;4.13;;;;;;;;;;4935795;29;20529;-70
2023/09/29 11:57:58;;;;;;;6.33;4.40;;;;;;;;;;4916184;29;20426;-70
2023/09/29 12:00:24;;;;;;;7.90;4.10;;;;;;;;;;4916882;29;20419;-70
2023/09/29 12:02:50;;;;;;;13.63;4.87;;;;;;;;;;4923658;29;20467;-70
2023/09/29 12:05:16;;;;;;;8.60;4.40;;;;;;;;;;4932902;29;20533;-71
2023/09/29 12:07:42;;;;;;;8.30;4.70;;;;;;;;;;4932283;29;20430;-71
2023/09/29 12:10:08;;;;;;;4.97;3.70;;;;;;;;;;4934479;29;20418;-70
2023/09/29 12:12:34;;;;;;;7.93;4.50;;;;;;;;;;4935493;29;20879;-70
2023/09/29 12:15:00;;;;;;;6.77;3.93;;;;;;;;;;4935255;29;20424;-71
2023/09/29 12:17:26;;;;;;;7.73;4.40;;;;;;;;;;4935130;29;20445;-71
2023/09/29 12:19:52;;;;;;;7.70;4.67;;;;;;;;;;4934818;29;20460;-73
2023/09/29 12:22:18;;;;;;;7.03;3.80;;;;;;;;;;4926133;29;20469;-70
2023/09/29 12:24:44;;;;;;;18.83;4.60;;;;;;;;;;4935155;29;20418;-71
2023/09/29 12:27:11;;;;;;;7.23;4.10;;;;;;;;;;4935543;29;20480;-70
2023/09/29 12:29:37;;;;;;;5.70;4.10;;;;;;;;;;4935763;29;20426;-71
2023/09/29 12:32:03;;;;;;;5.50;3.83;;;;;;;;;;4935419;29;20532;-70
2023/09/29 12:37:33;;;;;;;11.10;4.33;;;;;;;;;;4934060;29;20943;-70
2023/09/29 12:43:03;;;;;;;6.17;3.90;;;;;;;;;;4933362;29;20459;-71
2023/09/29 12:48:32;;;;;;;6.90;4.40;;;;;;;;;;4929257;29;20413;-70
2023/09/29 12:50:58;;;;;;;6.20;4.20;;;;;;;;;;4934822;29;20685;-70
2023/09/29 12:53:24;;;;;;;4.63;3.80;;;;;;;;;;4934939;29;20421;-69
2023/09/29 12:55:50;;;;;;;9.23;5.00;;;;;;;;;;4933437;29;20428;-70
2023/09/29 12:58:16;;;;;;;6.10;3.60;;;;;;;;;;4916090;29;20458;-70
2023/09/29 13:00:42;;;;;;;8.27;3.30;;;;;;;;;;4916148;29;20970;-70
2023/09/29 13:03:08;;;;;;;9.07;3.47;;;;;;;;;;4917053;29;20453;-70
2023/09/29 13:05:37;;;;;;;4.83;3.30;;;;;;;;;;4920504;29;20422;-71
2023/09/29 13:08:04;;;;;;;7.83;3.47;;;;;;;;;;4916169;29;20430;-71
2023/09/29 13:10:39;;;;;;;6.13;4.10;;;;;;;;;;4927630;29;20453;-70
2023/09/29 13:13:05;;;;;;;8.00;4.57;;;;;;;;;;4917791;29;20441;-71
2023/09/29 13:15:33;;;;;;;5.53;4.13;;;;;;;;;;4915465;29;20409;-69
2023/09/29 13:18:00;;;;;;;4.00;3.30;;;;;;;;;;4931866;29;20425;-70
2023/09/29 13:20:25;;;;;;;5.60;3.30;;;;;;;;;;4934388;29;20425;-70
2023/09/29 13:22:51;;;;;;;6.50;3.63;;;;;;;;;;4930378;29;20525;-69
2023/09/29 13:25:18;;;;;;;19.37;4.90;;;;;;;;;;4931093;29;20430;-70
2023/09/29 13:27:44;;;;;;;6.90;3.97;;;;;;;;;;4916285;29;20546;-70
2023/09/29 13:36:39;;;;;;;8.20;4.23;;;;;;;;;;4926877;29;20424;-68
2023/09/29 13:45:12;;;;;;;9.30;4.43;;;;;;;;;;4920749;29;20462;-71
2023/09/29 13:47:38;;;;;;;4.80;3.67;;;;;;;;;;4914505;29;20418;-71
2023/09/29 13:50:05;;;;;;;8.80;3.90;;;;;;;;;;4931096;29;20437;-70
2023/09/29 13:52:31;;;;;;;6.70;3.70;;;;;;;;;;4927122;29;20473;-70
2023/09/29 13:54:57;;;;;;;7.50;3.57;;;;;;;;;;4932484;29;20428;-69
2023/09/29 13:57:24;;;;;;;6.87;4.10;;;;;;;;;;4932872;29;20409;-70
2023/09/29 13:59:50;;;;;;;6.17;4.20;;;;;;;;;;4931169;29;20804;-70
2023/09/29 14:02:16;;;;;;;11.50;4.70;;;;;;;;;;4934589;29;20524;-64
2023/09/29 14:04:42;;;;;;;7.97;4.23;;;;;;;;;;4923470;29;20414;-64
2023/09/29 14:07:08;;;;;;;7.50;4.80;;;;;;;;;;4932956;29;20414;-64
2023/09/29 14:09:37;;;;;;;6.60;4.33;;;;;;;;;;4933228;29;20420;-64
2023/09/29 14:12:05;;;;;;;8.93;4.00;;;;;;;;;;4932650;29;20613;-64
2023/09/29 14:14:31;;;;;;;5.23;4.00;;;;;;;;;;4932207;29;20425;-64
2023/09/29 14:16:57;;;;;;;4.80;3.90;;;;;;;;;;4930446;29;20448;-64
2023/09/29 14:19:23;;;;;;;5.33;4.10;;;;;;;;;;4918530;29;20411;-64
2023/09/29 14:21:49;;;;;;;4.77;3.63;;;;;;;;;;4913297;29;20446;-65
2023/09/29 14:24:18;;;;;;;7.93;3.73;;;;;;;;;;4925346;29;20434;-64
2023/09/29 14:26:44;;;;;;;10.30;3.77;;;;;;;;;;4932003;29;20422;-64
2023/09/29 14:29:11;;;;;;;7.70;3.93;;;;;;;;;;4933064;29;20555;-64
2023/09/29 14:31:38;;;;;;;5.77;4.00;;;;;;;;;;4932757;29;20516;-64
2023/09/29 14:34:04;;;;;;;6.80;3.40;;;;;;;;;;4932831;29;20785;-64
2023/09/29 14:36:30;;;;;;;7.53;4.40;;;;;;;;;;4920918;29;20842;-64
2023/09/29 14:38:56;;;;;;;8.50;4.17;;;;;;;;;;4932734;29;20477;-64
2023/09/29 14:41:22;;;;;;;9.50;4.77;;;;;;;;;;4932861;29;20456;-64
2023/09/29 14:43:48;;;;;;;6.33;4.47;;;;;;;;;;4932566;29;21086;-64
2023/09/29 14:46:16;;;;;;;9.53;4.60;;;;;;;;;;4932749;29;20964;-64
2023/09/29 14:48:42;;;;;;;8.10;5.13;;;;;;;;;;4927734;29;20496;-63
2023/09/29 14:51:09;;;;;;;8.90;5.03;;;;;;;;;;4932961;29;20880;-63
2023/09/29 14:53:36;;;;;;;9.77;4.60;;;;;;;;;;4933431;29;20612;-64
2023/09/29 14:56:05;;;;;;;7.97;5.10;;;;;;;;;;4932850;29;20549;-64
2023/09/29 14:58:31;;;;;;;10.90;4.83;;;;;;;;;;4932439;29;20442;-64
2023/09/29 15:00:57;;;;;;;11.70;4.83;;;;;;;;;;4932461;29;20433;-64
2023/09/29 15:03:23;;;;;;;8.73;4.83;;;;;;;;;;4925569;29;20525;-64
2023/09/29 15:05:49;;;;;;;14.83;4.37;;;;;;;;;;4917709;29;20449;-65
2023/09/29 15:08:15;;;;;;;10.20;4.70;;;;;;;;;;4924619;29;20897;-66
2023/09/29 15:10:45;;;;;;;8.87;4.50;;;;;;;;;;4929572;29;20441;-68
2023/09/29 15:13:11;;;;;;;16.27;4.97;;;;;;;;;;4926950;29;20484;-68
2023/09/29 15:15:38;;;;;;;19.57;5.60;;;;;;;;;;4931314;29;20528;-68
2023/09/29 15:18:04;;;;;;;9.80;4.67;;;;;;;;;;4922462;29;20523;-68
2023/09/29 15:20:34;;;;;;;11.60;4.43;;;;;;;;;;4922770;29;20445;-67
2023/09/29 15:23:00;;;;;;;19.60;7.40;;;;;;;;;;4931462;29;20821;-69
2023/09/29 15:25:26;;;;;;;12.33;5.93;;;;;;;;;;4928335;29;20437;-68
2023/09/29 15:27:52;;;;;;;19.30;8.40;;;;;;;;;;4929791;29;20520;-68
2023/09/29 15:30:18;;;;;;;10.33;5.67;;;;;;;;;;4929005;29;20445;-68
2023/09/29 15:32:45;;;;;;;15.20;5.80;;;;;;;;;;4932465;29;21039;-69
2023/09/29 15:35:11;;;;;;;22.33;5.43;;;;;;;;;;4933827;29;20766;-69
2023/09/29 15:37:38;;;;;;;14.10;5.73;;;;;;;;;;4935002;29;20438;-69
2023/09/29 15:40:04;;;;;;;7.90;4.93;;;;;;;;;;4935086;29;20429;-69
2023/09/29 15:42:30;;;;;;;10.37;5.80;;;;;;;;;;4936195;29;20809;-70
2023/09/29 15:44:57;;;;;;;16.00;6.00;;;;;;;;;;4935674;29;20441;-69
2023/09/29 15:47:23;;;;;;;16.03;6.40;;;;;;;;;;4928755;29;20445;-69
2023/09/29 15:49:49;;;;;;;13.87;6.37;;;;;;;;;;4932251;29;20434;-69
2023/09/29 15:52:15;;;;;;;15.70;6.83;;;;;;;;;;4931376;29;20473;-68
2023/09/29 15:54:41;;;;;;;22.43;6.77;;;;;;;;;;4928669;29;20432;-68
2023/09/29 15:57:11;;;;;;;20.03;7.63;;;;;;;;;;4931465;29;20488;-68
2023/09/29 15:59:37;;;;;;;24.80;7.50;;;;;;;;;;4929118;29;20474;-68
2023/09/29 16:02:03;;;;;;;21.30;8.77;;;;;;;;;;4930879;29;20461;-68
2023/09/29 16:04:29;;;;;;;31.57;10.00;;;;;;;;;;4926046;29;20442;-69
2023/09/29 16:06:55;;;;;;;25.57;9.87;;;;;;;;;;4932413;29;20440;-69
2023/09/29 16:09:25;;;;;;;27.00;11.17;;;;;;;;;;4932089;29;20558;-69
2023/09/29 16:11:51;;;;;;;28.70;11.73;;;;;;;;;;4935388;29;22209;-69
2023/09/29 16:14:17;;;;;;;34.80;12.07;;;;;;;;;;4934648;29;20452;-70
2023/09/29 16:16:43;;;;;;;29.23;12.10;;;;;;;;;;4929141;29;20438;-70
2023/09/29 16:19:10;;;;;;;31.30;12.17;;;;;;;;;;4924543;29;20458;-69
2023/09/29 16:21:36;;;;;;;31.88;12.70;;;;;;;;;;4932423;29;21200;-68
2023/09/29 16:24:02;;;;;;;30.00;11.60;;;;;;;;;;4927878;29;20236;-68
2023/09/29 16:26:28;;;;;;;27.87;12.30;;;;;;;;;;4932964;29;20449;-69
2023/09/29 16:28:54;;;;;;;34.77;12.93;;;;;;;;;;4932157;29;20532;-68
2023/09/29 16:31:20;;;;;;;36.40;13.60;;;;;;;;;;4931280;29;20885;-69
2023/09/29 16:33:46;;;;;;;35.33;14.00;;;;;;;;;;4933551;29;20438;-68
2023/09/29 16:36:17;;;;;;;39.60;14.37;;;;;;;;;;4926536;29;20423;-70
2023/09/29 16:38:43;;;;;;;40.53;15.00;;;;;;;;;;4933282;29;20442;-68
2023/09/29 16:41:10;;;;;;;37.47;15.23;;;;;;;;;;4926752;29;20540;-69
2023/09/29 16:43:36;;;;;;;47.27;18.30;;;;;;;;;;4930119;29;20499;-69
2023/09/29 16:46:03;;;;;;;50.23;19.00;;;;;;;;;;4927083;29;20445;-69
2023/09/29 16:48:29;;;;;;;50.80;17.53;;;;;;;;;;4918253;29;20992;-70
2023/09/29 16:51:01;;;;;;;45.03;19.53;;;;;;;;;;4928991;29;20544;-70
2023/09/29 16:53:31;;;;;;;46.83;19.17;;;;;;;;;;4930534;29;20886;-70
2023/09/29 16:56:02;;;;;;;53.30;20.50;;;;;;;;;;4933977;29;20425;-69
2023/09/29 16:58:28;;;;;;;48.40;20.33;;;;;;;;;;4925661;29;20804;-69
2023/09/29 17:00:54;;;;;;;62.63;19.80;;;;;;;;;;4928002;29;20434;-68
2023/09/29 17:03:19;;;;;;;56.03;20.63;;;;;;;;;;4932105;29;20927;-68
2023/09/29 17:05:46;;;;;;;58.83;21.10;;;;;;;;;;4926025;29;20814;-68
2023/09/29 17:08:12;;;;;;;55.33;20.40;;;;;;;;;;4932645;29;20956;-68
2023/09/29 17:10:37;;;;;;;61.10;22.33;;;;;;;;;;4928629;29;20429;-68
2023/09/29 17:13:05;;;;;;;56.87;20.70;;;;;;;;;;4933956;29;20477;-68
2023/09/29 17:15:31;;;;;;;59.60;21.77;;;;;;;;;;4927666;29;20440;-70
2023/09/29 17:17:57;;;;;;;54.97;21.17;;;;;;;;;;4933207;29;20460;-68
2023/09/29 17:20:23;;;;;;;51.50;21.03;;;;;;;;;;4931522;29;20566;-68
2023/09/29 17:22:50;;;;;;;49.37;19.17;;;;;;;;;;4932971;29;20538;-69
2023/09/29 17:25:16;;;;;;;48.53;20.10;;;;;;;;;;4933262;29;20433;-68
2023/09/29 17:27:42;;;;;;;40.50;17.47;;;;;;;;;;4926191;29;20430;-69
2023/09/29 17:30:08;;;;;;;48.13;20.10;;;;;;;;;;4934087;29;20420;-69
2023/09/29 17:32:34;;;;;;;53.67;18.17;;;;;;;;;;4922931;29;20474;-69
2023/09/29 17:35:00;;;;;;;53.80;20.10;;;;;;;;;;4921929;29;20472;-69
2023/09/29 17:37:29;;;;;;;42.97;18.50;;;;;;;;;;4926518;29;20433;-68
2023/09/29 17:39:55;;;;;;;50.97;19.77;;;;;;;;;;4934389;29;20414;-67
2023/09/29 17:42:21;;;;;;;49.30;18.17;;;;;;;;;;4933629;29;20469;-68
2023/09/29 17:44:47;;;;;;;49.20;19.03;;;;;;;;;;4932680;29;20425;-68
2023/09/29 17:47:13;;;;;;;53.80;19.30;;;;;;;;;;4914941;29;20907;-67
2023/09/29 17:49:38;;;;;;;50.20;20.03;;;;;;;;;;4915836;29;20505;-69
2023/09/29 17:52:05;;;;;;;52.77;18.80;;;;;;;;;;4922428;29;20473;-69
2023/09/29 17:54:31;;;;;;;55.03;19.77;;;;;;;;;;4915334;29;20431;-67
2023/09/29 17:56:57;;;;;;;49.10;18.30;;;;;;;;;;4913928;29;20509;-68
2023/09/29 17:59:23;;;;;;;48.63;17.50;;;;;;;;;;4915114;29;20434;-67
2023/09/29 18:01:50;;;;;;;54.43;19.63;;;;;;;;;;4919762;29;20441;-68
2023/09/29 18:04:17;;;;;;;52.00;18.67;;;;;;;;;;4914176;29;20418;-69
2023/09/29 18:06:43;;;;;;;47.70;17.90;;;;;;;;;;4925119;29;20433;-69
2023/09/29 18:09:09;;;;;;;40.70;15.93;;;;;;;;;;4926105;29;20421;-67
2023/09/29 18:11:35;;;;;;;52.87;18.37;;;;;;;;;;4915033;29;20473;-68
2023/09/29 18:14:02;;;;;;;53.13;19.10;;;;;;;;;;4914003;29;20423;-68
2023/09/29 18:16:28;;;;;;;49.17;18.03;;;;;;;;;;4915226;29;20515;-71
2023/09/29 18:18:54;;;;;;;49.27;17.00;;;;;;;;;;4928890;29;20513;-71
2023/09/29 18:21:20;;;;;;;54.03;17.90;;;;;;;;;;4928790;29;20895;-70
2023/09/29 18:23:46;;;;;;;45.30;16.90;;;;;;;;;;4929876;29;21138;-70
2023/09/29 18:26:12;;;;;;;46.90;16.47;;;;;;;;;;4930542;29;20425;-70
2023/09/29 18:28:38;;;;;;;48.13;16.80;;;;;;;;;;4926398;29;20461;-71
2023/09/29 18:31:09;;;;;;;42.97;16.80;;;;;;;;;;4919420;29;20425;-73
2023/09/29 18:33:35;;;;;;;43.83;15.80;;;;;;;;;;4928736;29;20778;-71
2023/09/29 18:36:02;;;;;;;41.07;15.43;;;;;;;;;;4923946;29;20973;-72
2023/09/29 18:38:28;;;;;;;39.57;15.20;;;;;;;;;;4925089;29;20418;-71
2023/09/29 18:40:54;;;;;;;34.90;13.20;;;;;;;;;;4929038;29;20464;-71
2023/09/29 18:43:20;;;;;;;41.17;14.07;;;;;;;;;;4929082;29;20919;-72
2023/09/29 18:45:46;;;;;;;34.93;13.40;;;;;;;;;;4922485;29;20453;-71
2023/09/29 18:48:12;;;;;;;30.77;11.73;;;;;;;;;;4930586;29;20909;-71
2023/09/29 18:50:38;;;;;;;39.90;15.17;;;;;;;;;;4932881;29;20557;-71
2023/09/29 18:53:05;;;;;;;34.00;13.00;;;;;;;;;;4933666;29;20484;-72
2023/09/29 18:55:31;;;;;;;43.17;14.43;;;;;;;;;;4933942;29;20426;-74
2023/09/29 18:57:58;;;;;;;41.13;14.10;;;;;;;;;;4934670;29;20783;-73
2023/09/29 19:00:25;;;;;;;42.13;15.10;;;;;;;;;;4935309;29;20417;-71
2023/09/29 19:02:51;;;;;;;40.00;13.87;;;;;;;;;;4934921;29;20963;-72
2023/09/29 19:05:17;;;;;;;37.93;14.30;;;;;;;;;;4934512;29;20444;-76
2023/09/29 19:07:45;;;;;;;33.03;13.70;;;;;;;;;;4929622;29;20421;-74
2023/09/29 19:10:11;;;;;;;34.03;13.30;;;;;;;;;;4938656;29;20498;-76
2023/09/29 19:12:37;;;;;;;29.53;11.90;;;;;;;;;;4940021;29;21238;-77
2023/09/29 19:15:03;;;;;;;23.60;10.77;;;;;;;;;;4931121;29;20426;-72
2023/09/29 19:17:29;;;;;;;32.13;10.90;;;;;;;;;;4928672;29;20492;-74
2023/09/29 19:19:55;;;;;;;28.93;10.63;;;;;;;;;;4927768;29;20425;-72
2023/09/29 19:22:21;;;;;;;32.87;10.77;;;;;;;;;;4932031;29;20445;-72
2023/09/29 19:24:47;;;;;;;32.47;11.27;;;;;;;;;;4932761;29;20484;-71
2023/09/29 19:27:13;;;;;;;25.53;10.83;;;;;;;;;;4926943;29;20445;-72
2023/09/29 19:29:39;;;;;;;26.77;9.87;;;;;;;;;;4928700;29;20435;-73
2023/09/29 19:32:06;;;;;;;24.50;9.80;;;;;;;;;;4937387;29;20481;-71
2023/09/29 19:34:32;;;;;;;29.83;9.37;;;;;;;;;;4938420;29;20421;-72
2023/09/29 19:36:58;;;;;;;33.93;11.80;;;;;;;;;;4942157;29;20434;-72
2023/09/29 19:39:24;;;;;;;31.03;10.60;;;;;;;;;;4937532;29;20520;-71
2023/09/29 19:41:50;;;;;;;30.83;10.80;;;;;;;;;;4932445;29;20469;-71
2023/09/29 19:44:17;;;;;;;26.93;9.67;;;;;;;;;;4930988;29;20460;-70
2023/09/29 19:46:43;;;;;;;30.90;11.00;;;;;;;;;;4936716;29;20980;-66
2023/09/29 19:49:09;;;;;;;25.87;11.33;;;;;;;;;;4933566;29;20490;-67
2023/09/29 19:51:36;;;;;;;24.03;10.90;;;;;;;;;;4925685;29;20504;-66
2023/09/29 19:54:02;;;;;;;35.50;13.10;;;;;;;;;;4930152;29;20436;-65
2023/09/29 19:56:33;;;;;;;24.20;9.73;;;;;;;;;;4934036;29;20447;-64
2023/09/29 19:58:59;;;;;;;25.90;8.87;;;;;;;;;;4933320;29;20524;-66
2023/09/29 20:01:25;;;;;;;28.40;9.77;;;;;;;;;;4931219;29;20465;-66
2023/09/29 20:03:51;;;;;;;22.43;8.97;;;;;;;;;;4932109;29;20426;-66
2023/09/29 20:06:18;;;;;;;27.53;9.03;;;;;;;;;;4929391;29;20442;-65
2023/09/29 20:08:44;;;;;;;27.97;9.73;;;;;;;;;;4927361;29;20437;-66
2023/09/29 20:11:10;;;;;;;19.97;8.33;;;;;;;;;;4926183;29;20419;-66